sensor_id;sensor_type;location;lat;lon;timestamp;P1;durP1;ratioP1;P2;durP2;ratioP2
3571;SDS011;7958;53.024;12.970;2023-12-04T00:00:34;14.70;;;7.50;;
3571;SDS011;7958;53.024;12.970;2023-12-04T00:03:01;16.23;;;7.80;;
3571;SDS011;7958;53.024;12.970;2023-12-04T00:05:27;16.17;;;8.43;;
3571;SDS011;7958;53.024;12.970;2023-12-04T00:07:54;12.13;;;6.67;;
3571;SDS011;7958;53.024;12.970;2023-12-04T00:10:20;9.93;;;5.50;;
3571;SDS011;7958;53.024;12.970;2023-12-04T00:12:51;6.60;;;4.93;;
3571;SDS011;7958;53.024;12.970;2023-12-04T00:15:19;5.87;;;4.33;;
3571;SDS011;7958;53.024;12.970;2023-12-04T00:17:46;6.03;;;3.90;;
3571;SDS011;7958;53.024;12.970;2023-12-04T00:20:12;5.57;;;3.87;;
3571;SDS011;7958;53.024;12.970;2023-12-04T00:22:38;5.80;;;4.10;;
3571;SDS011;7958;53.024;12.970;2023-12-04T00:25:05;6.83;;;4.50;;
3571;SDS011;7958;53.024;12.970;2023-12-04T00:27:32;10.53;;;6.30;;
3571;SDS011;7958;53.024;12.970;2023-12-04T00:30:00;7.40;;;4.90;;
3571;SDS011;7958;53.024;12.970;2023-12-04T00:32:28;7.13;;;5.13;;
3571;SDS011;7958;53.024;12.970;2023-12-04T00:34:55;9.10;;;5.13;;
3571;SDS011;7958;53.024;12.970;2023-12-04T00:37:21;5.63;;;3.83;;
3571;SDS011;7958;53.024;12.970;2023-12-04T00:39:49;6.80;;;4.00;;
3571;SDS011;7958;53.024;12.970;2023-12-04T00:42:15;5.50;;;3.80;;
3571;SDS011;7958;53.024;12.970;2023-12-04T00:44:42;5.30;;;3.97;;
3571;SDS011;7958;53.024;12.970;2023-12-04T00:47:09;7.00;;;4.40;;
3571;SDS011;7958;53.024;12.970;2023-12-04T00:49:39;8.13;;;4.33;;
3571;SDS011;7958;53.024;12.970;2023-12-04T00:52:06;6.07;;;3.70;;
3571;SDS011;7958;53.024;12.970;2023-12-04T00:54:32;9.80;;;4.97;;
3571;SDS011;7958;53.024;12.970;2023-12-04T00:56:58;8.50;;;4.90;;
3571;SDS011;7958;53.024;12.970;2023-12-04T00:59:25;7.87;;;4.77;;
3571;SDS011;7958;53.024;12.970;2023-12-04T01:01:51;11.27;;;6.17;;
3571;SDS011;7958;53.024;12.970;2023-12-04T01:04:19;9.07;;;5.13;;
3571;SDS011;7958;53.024;12.970;2023-12-04T01:06:46;9.83;;;5.00;;
3571;SDS011;7958;53.024;12.970;2023-12-04T01:09:13;9.50;;;6.40;;
3571;SDS011;7958;53.024;12.970;2023-12-04T01:11:49;6.73;;;5.00;;
3571;SDS011;7958;53.024;12.970;2023-12-04T01:14:15;7.40;;;4.90;;
3571;SDS011;7958;53.024;12.970;2023-12-04T01:16:41;8.33;;;5.00;;
3571;SDS011;7958;53.024;12.970;2023-12-04T01:19:08;6.70;;;4.90;;
3571;SDS011;7958;53.024;12.970;2023-12-04T01:21:36;8.83;;;5.10;;
3571;SDS011;7958;53.024;12.970;2023-12-04T01:24:07;5.93;;;4.00;;
3571;SDS011;7958;53.024;12.970;2023-12-04T01:26:33;5.87;;;4.43;;
3571;SDS011;7958;53.024;12.970;2023-12-04T01:29:00;6.37;;;3.97;;
3571;SDS011;7958;53.024;12.970;2023-12-04T01:31:26;6.77;;;3.87;;
3571;SDS011;7958;53.024;12.970;2023-12-04T01:33:52;6.77;;;4.30;;
3571;SDS011;7958;53.024;12.970;2023-12-04T01:36:20;7.10;;;4.00;;
3571;SDS011;7958;53.024;12.970;2023-12-04T01:38:48;4.90;;;4.30;;
3571;SDS011;7958;53.024;12.970;2023-12-04T01:41:14;6.93;;;4.00;;
3571;SDS011;7958;53.024;12.970;2023-12-04T01:43:41;5.73;;;3.90;;
3571;SDS011;7958;53.024;12.970;2023-12-04T01:46:07;6.50;;;4.73;;
3571;SDS011;7958;53.024;12.970;2023-12-04T01:48:34;7.73;;;4.00;;
3571;SDS011;7958;53.024;12.970;2023-12-04T01:51:03;5.97;;;3.60;;
3571;SDS011;7958;53.024;12.970;2023-12-04T01:53:32;6.43;;;4.03;;
3571;SDS011;7958;53.024;12.970;2023-12-04T01:56:00;9.00;;;4.50;;
3571;SDS011;7958;53.024;12.970;2023-12-04T01:58:27;7.20;;;4.60;;
3571;SDS011;7958;53.024;12.970;2023-12-04T02:00:53;13.10;;;5.10;;
3571;SDS011;7958;53.024;12.970;2023-12-04T02:03:20;8.70;;;4.00;;
3571;SDS011;7958;53.024;12.970;2023-12-04T02:05:46;9.00;;;4.60;;
3571;SDS011;7958;53.024;12.970;2023-12-04T02:08:13;7.10;;;4.50;;
3571;SDS011;7958;53.024;12.970;2023-12-04T02:10:40;4.40;;;3.50;;
3571;SDS011;7958;53.024;12.970;2023-12-04T02:13:08;7.20;;;4.20;;
3571;SDS011;7958;53.024;12.970;2023-12-04T02:15:34;10.87;;;5.30;;
3571;SDS011;7958;53.024;12.970;2023-12-04T02:18:01;8.90;;;5.23;;
3571;SDS011;7958;53.024;12.970;2023-12-04T02:20:35;10.40;;;5.57;;
3571;SDS011;7958;53.024;12.970;2023-12-04T02:25:28;7.40;;;4.95;;
3571;SDS011;7958;53.024;12.970;2023-12-04T02:27:56;6.00;;;4.20;;
3571;SDS011;7958;53.024;12.970;2023-12-04T02:30:24;8.67;;;4.60;;
3571;SDS011;7958;53.024;12.970;2023-12-04T02:32:51;12.17;;;5.83;;
3571;SDS011;7958;53.024;12.970;2023-12-04T02:35:19;7.00;;;5.10;;
3571;SDS011;7958;53.024;12.970;2023-12-04T02:37:48;7.73;;;4.87;;
3571;SDS011;7958;53.024;12.970;2023-12-04T02:40:15;7.00;;;4.53;;
3571;SDS011;7958;53.024;12.970;2023-12-04T02:42:43;7.77;;;4.40;;
3571;SDS011;7958;53.024;12.970;2023-12-04T02:45:15;8.13;;;5.10;;
3571;SDS011;7958;53.024;12.970;2023-12-04T02:47:42;8.07;;;5.73;;
3571;SDS011;7958;53.024;12.970;2023-12-04T02:50:09;9.83;;;4.90;;
3571;SDS011;7958;53.024;12.970;2023-12-04T02:52:35;11.07;;;6.33;;
3571;SDS011;7958;53.024;12.970;2023-12-04T02:55:01;8.77;;;5.43;;
3571;SDS011;7958;53.024;12.970;2023-12-04T02:57:28;10.50;;;5.70;;
3571;SDS011;7958;53.024;12.970;2023-12-04T02:59:56;9.83;;;5.13;;
3571;SDS011;7958;53.024;12.970;2023-12-04T03:02:23;10.03;;;5.80;;
3571;SDS011;7958;53.024;12.970;2023-12-04T03:04:49;8.97;;;5.30;;
3571;SDS011;7958;53.024;12.970;2023-12-04T03:07:16;11.70;;;5.90;;
3571;SDS011;7958;53.024;12.970;2023-12-04T03:09:45;11.03;;;6.00;;
3571;SDS011;7958;53.024;12.970;2023-12-04T03:12:14;9.30;;;6.10;;
3571;SDS011;7958;53.024;12.970;2023-12-04T03:14:40;9.00;;;5.37;;
3571;SDS011;7958;53.024;12.970;2023-12-04T03:19:49;14.80;;;6.23;;
3571;SDS011;7958;53.024;12.970;2023-12-04T03:22:17;16.77;;;7.20;;
3571;SDS011;7958;53.024;12.970;2023-12-04T03:24:43;11.67;;;7.40;;
3571;SDS011;7958;53.024;12.970;2023-12-04T03:27:11;12.03;;;6.70;;
3571;SDS011;7958;53.024;12.970;2023-12-04T03:29:37;11.90;;;6.70;;
3571;SDS011;7958;53.024;12.970;2023-12-04T03:32:04;16.73;;;7.83;;
3571;SDS011;7958;53.024;12.970;2023-12-04T03:34:32;13.93;;;6.27;;
3571;SDS011;7958;53.024;12.970;2023-12-04T03:36:58;12.53;;;6.77;;
3571;SDS011;7958;53.024;12.970;2023-12-04T03:39:24;14.67;;;7.60;;
3571;SDS011;7958;53.024;12.970;2023-12-04T03:41:51;13.50;;;7.60;;
3571;SDS011;7958;53.024;12.970;2023-12-04T03:44:17;14.23;;;7.53;;
3571;SDS011;7958;53.024;12.970;2023-12-04T03:46:48;13.10;;;7.30;;
3571;SDS011;7958;53.024;12.970;2023-12-04T03:49:15;17.50;;;7.50;;
3571;SDS011;7958;53.024;12.970;2023-12-04T03:51:43;12.33;;;6.40;;
3571;SDS011;7958;53.024;12.970;2023-12-04T03:54:09;12.10;;;6.30;;
3571;SDS011;7958;53.024;12.970;2023-12-04T03:56:36;11.87;;;6.10;;
3571;SDS011;7958;53.024;12.970;2023-12-04T03:59:04;15.87;;;6.93;;
3571;SDS011;7958;53.024;12.970;2023-12-04T04:01:31;16.70;;;7.73;;
3571;SDS011;7958;53.024;12.970;2023-12-04T04:03:57;14.57;;;7.03;;
3571;SDS011;7958;53.024;12.970;2023-12-04T04:06:24;11.60;;;6.83;;
3571;SDS011;7958;53.024;12.970;2023-12-04T04:08:51;14.53;;;7.43;;
3571;SDS011;7958;53.024;12.970;2023-12-04T04:11:18;11.07;;;6.27;;
3571;SDS011;7958;53.024;12.970;2023-12-04T04:16:12;14.97;;;7.80;;
3571;SDS011;7958;53.024;12.970;2023-12-04T04:18:39;15.57;;;7.77;;
3571;SDS011;7958;53.024;12.970;2023-12-04T04:21:06;12.97;;;7.50;;
3571;SDS011;7958;53.024;12.970;2023-12-04T04:23:32;17.07;;;7.30;;
3571;SDS011;7958;53.024;12.970;2023-12-04T04:26:00;17.00;;;8.10;;
3571;SDS011;7958;53.024;12.970;2023-12-04T04:28:27;13.93;;;7.33;;
3571;SDS011;7958;53.024;12.970;2023-12-04T04:30:54;14.00;;;7.60;;
3571;SDS011;7958;53.024;12.970;2023-12-04T04:33:20;14.73;;;7.80;;
3571;SDS011;7958;53.024;12.970;2023-12-04T04:35:47;15.73;;;7.77;;
3571;SDS011;7958;53.024;12.970;2023-12-04T04:38:13;13.37;;;7.20;;
3571;SDS011;7958;53.024;12.970;2023-12-04T04:40:39;16.60;;;8.10;;
3571;SDS011;7958;53.024;12.970;2023-12-04T04:43:09;17.37;;;7.97;;
3571;SDS011;7958;53.024;12.970;2023-12-04T04:45:36;17.17;;;8.30;;
3571;SDS011;7958;53.024;12.970;2023-12-04T04:48:02;18.03;;;8.73;;
3571;SDS011;7958;53.024;12.970;2023-12-04T04:50:29;19.17;;;8.80;;
3571;SDS011;7958;53.024;12.970;2023-12-04T04:52:56;17.00;;;8.30;;
3571;SDS011;7958;53.024;12.970;2023-12-04T04:55:22;19.97;;;10.00;;
3571;SDS011;7958;53.024;12.970;2023-12-04T05:00:16;18.25;;;8.90;;
3571;SDS011;7958;53.024;12.970;2023-12-04T05:02:45;15.10;;;8.00;;
3571;SDS011;7958;53.024;12.970;2023-12-04T05:05:19;12.90;;;7.47;;
3571;SDS011;7958;53.024;12.970;2023-12-04T05:07:51;19.97;;;9.50;;
3571;SDS011;7958;53.024;12.970;2023-12-04T05:10:23;15.27;;;7.90;;
3571;SDS011;7958;53.024;12.970;2023-12-04T05:12:49;22.80;;;10.40;;
3571;SDS011;7958;53.024;12.970;2023-12-04T05:15:17;21.50;;;10.37;;
3571;SDS011;7958;53.024;12.970;2023-12-04T05:17:43;19.70;;;9.73;;
3571;SDS011;7958;53.024;12.970;2023-12-04T05:20:10;12.70;;;7.20;;
3571;SDS011;7958;53.024;12.970;2023-12-04T05:22:42;13.27;;;7.23;;
3571;SDS011;7958;53.024;12.970;2023-12-04T05:25:08;20.00;;;8.30;;
3571;SDS011;7958;53.024;12.970;2023-12-04T05:27:34;17.10;;;8.53;;
3571;SDS011;7958;53.024;12.970;2023-12-04T05:30:01;16.47;;;8.43;;
3571;SDS011;7958;53.024;12.970;2023-12-04T05:32:29;18.13;;;8.30;;
3571;SDS011;7958;53.024;12.970;2023-12-04T05:34:55;18.70;;;9.50;;
3571;SDS011;7958;53.024;12.970;2023-12-04T05:37:25;23.30;;;10.83;;
3571;SDS011;7958;53.024;12.970;2023-12-04T05:39:51;17.87;;;8.40;;
3571;SDS011;7958;53.024;12.970;2023-12-04T05:42:17;20.40;;;10.50;;
3571;SDS011;7958;53.024;12.970;2023-12-04T05:44:44;17.70;;;9.23;;
3571;SDS011;7958;53.024;12.970;2023-12-04T05:47:10;22.80;;;10.23;;
3571;SDS011;7958;53.024;12.970;2023-12-04T05:49:44;28.90;;;12.53;;
3571;SDS011;7958;53.024;12.970;2023-12-04T05:52:11;24.40;;;11.23;;
3571;SDS011;7958;53.024;12.970;2023-12-04T05:54:37;22.10;;;10.77;;
3571;SDS011;7958;53.024;12.970;2023-12-04T05:57:04;19.90;;;11.73;;
3571;SDS011;7958;53.024;12.970;2023-12-04T05:59:30;35.73;;;17.27;;
3571;SDS011;7958;53.024;12.970;2023-12-04T06:01:57;22.80;;;12.27;;
3571;SDS011;7958;53.024;12.970;2023-12-04T06:04:27;24.97;;;11.63;;
3571;SDS011;7958;53.024;12.970;2023-12-04T06:06:54;17.00;;;9.80;;
3571;SDS011;7958;53.024;12.970;2023-12-04T06:09:21;19.67;;;10.67;;
3571;SDS011;7958;53.024;12.970;2023-12-04T06:11:47;21.40;;;11.00;;
3571;SDS011;7958;53.024;12.970;2023-12-04T06:14:18;21.33;;;10.60;;
3571;SDS011;7958;53.024;12.970;2023-12-04T06:16:45;17.40;;;9.17;;
3571;SDS011;7958;53.024;12.970;2023-12-04T06:19:12;20.60;;;9.83;;
3571;SDS011;7958;53.024;12.970;2023-12-04T06:21:38;20.63;;;10.07;;
3571;SDS011;7958;53.024;12.970;2023-12-04T06:24:11;14.17;;;8.50;;
3571;SDS011;7958;53.024;12.970;2023-12-04T06:26:38;16.53;;;9.37;;
3571;SDS011;7958;53.024;12.970;2023-12-04T06:29:08;15.93;;;7.57;;
3571;SDS011;7958;53.024;12.970;2023-12-04T06:31:34;21.23;;;9.10;;
3571;SDS011;7958;53.024;12.970;2023-12-04T06:34:01;15.50;;;8.43;;
3571;SDS011;7958;53.024;12.970;2023-12-04T06:36:28;19.67;;;9.13;;
3571;SDS011;7958;53.024;12.970;2023-12-04T06:38:56;19.07;;;9.50;;
3571;SDS011;7958;53.024;12.970;2023-12-04T06:44:11;16.20;;;6.57;;
3571;SDS011;7958;53.024;12.970;2023-12-04T06:46:40;15.23;;;7.80;;
3571;SDS011;7958;53.024;12.970;2023-12-04T06:49:11;16.70;;;8.30;;
3571;SDS011;7958;53.024;12.970;2023-12-04T06:51:37;13.73;;;8.07;;
3571;SDS011;7958;53.024;12.970;2023-12-04T06:54:04;19.30;;;9.27;;
3571;SDS011;7958;53.024;12.970;2023-12-04T06:56:30;17.47;;;9.27;;
3571;SDS011;7958;53.024;12.970;2023-12-04T06:58:57;17.90;;;9.43;;
3571;SDS011;7958;53.024;12.970;2023-12-04T07:01:26;14.80;;;7.20;;
3571;SDS011;7958;53.024;12.970;2023-12-04T07:03:53;13.60;;;8.40;;
3571;SDS011;7958;53.024;12.970;2023-12-04T07:06:19;15.50;;;8.70;;
3571;SDS011;7958;53.024;12.970;2023-12-04T07:08:47;18.83;;;9.13;;
3571;SDS011;7958;53.024;12.970;2023-12-04T07:11:13;17.10;;;8.77;;
3571;SDS011;7958;53.024;12.970;2023-12-04T07:13:40;19.90;;;9.87;;
3571;SDS011;7958;53.024;12.970;2023-12-04T07:16:07;28.37;;;12.87;;
3571;SDS011;7958;53.024;12.970;2023-12-04T07:18:35;47.30;;;19.53;;
3571;SDS011;7958;53.024;12.970;2023-12-04T07:21:01;30.60;;;13.77;;
3571;SDS011;7958;53.024;12.970;2023-12-04T07:23:28;18.03;;;10.50;;
3571;SDS011;7958;53.024;12.970;2023-12-04T07:25:55;19.33;;;10.10;;
3571;SDS011;7958;53.024;12.970;2023-12-04T07:28:21;17.67;;;9.87;;
3571;SDS011;7958;53.024;12.970;2023-12-04T07:30:47;20.03;;;9.53;;
3571;SDS011;7958;53.024;12.970;2023-12-04T07:33:14;18.23;;;9.10;;
3571;SDS011;7958;53.024;12.970;2023-12-04T07:35:42;19.77;;;10.53;;
3571;SDS011;7958;53.024;12.970;2023-12-04T07:38:08;13.50;;;8.07;;
3571;SDS011;7958;53.024;12.970;2023-12-04T07:40:34;16.70;;;8.67;;
3571;SDS011;7958;53.024;12.970;2023-12-04T07:43:01;19.13;;;10.70;;
3571;SDS011;7958;53.024;12.970;2023-12-04T07:45:27;16.53;;;9.50;;
3571;SDS011;7958;53.024;12.970;2023-12-04T07:47:54;22.20;;;12.17;;
3571;SDS011;7958;53.024;12.970;2023-12-04T07:50:20;20.77;;;9.77;;
3571;SDS011;7958;53.024;12.970;2023-12-04T07:52:48;22.30;;;10.37;;
3571;SDS011;7958;53.024;12.970;2023-12-04T07:55:14;19.87;;;9.57;;
3571;SDS011;7958;53.024;12.970;2023-12-04T07:57:41;17.47;;;9.33;;
3571;SDS011;7958;53.024;12.970;2023-12-04T08:00:08;20.13;;;9.70;;
3571;SDS011;7958;53.024;12.970;2023-12-04T08:02:35;23.00;;;10.73;;
3571;SDS011;7958;53.024;12.970;2023-12-04T08:05:02;18.07;;;10.60;;
3571;SDS011;7958;53.024;12.970;2023-12-04T08:07:29;21.90;;;12.87;;
3571;SDS011;7958;53.024;12.970;2023-12-04T08:09:57;19.93;;;9.80;;
3571;SDS011;7958;53.024;12.970;2023-12-04T08:12:23;32.13;;;18.10;;
3571;SDS011;7958;53.024;12.970;2023-12-04T08:14:50;55.47;;;27.07;;
3571;SDS011;7958;53.024;12.970;2023-12-04T08:17:17;26.03;;;13.80;;
3571;SDS011;7958;53.024;12.970;2023-12-04T08:19:45;24.80;;;14.13;;
3571;SDS011;7958;53.024;12.970;2023-12-04T08:22:11;23.57;;;12.53;;
3571;SDS011;7958;53.024;12.970;2023-12-04T08:24:37;20.27;;;10.90;;
3571;SDS011;7958;53.024;12.970;2023-12-04T08:27:06;23.67;;;12.87;;
3571;SDS011;7958;53.024;12.970;2023-12-04T08:29:33;22.10;;;11.43;;
3571;SDS011;7958;53.024;12.970;2023-12-04T08:31:59;36.57;;;19.70;;
3571;SDS011;7958;53.024;12.970;2023-12-04T08:34:26;23.30;;;13.77;;
3571;SDS011;7958;53.024;12.970;2023-12-04T08:36:52;20.13;;;12.27;;
3571;SDS011;7958;53.024;12.970;2023-12-04T08:39:19;23.20;;;12.50;;
3571;SDS011;7958;53.024;12.970;2023-12-04T08:41:45;25.63;;;12.60;;
3571;SDS011;7958;53.024;12.970;2023-12-04T08:44:13;23.60;;;13.70;;
3571;SDS011;7958;53.024;12.970;2023-12-04T08:46:40;24.20;;;13.90;;
3571;SDS011;7958;53.024;12.970;2023-12-04T08:49:07;29.83;;;16.80;;
3571;SDS011;7958;53.024;12.970;2023-12-04T08:51:34;23.53;;;12.67;;
3571;SDS011;7958;53.024;12.970;2023-12-04T08:54:00;18.93;;;11.27;;
3571;SDS011;7958;53.024;12.970;2023-12-04T08:56:27;26.90;;;15.70;;
3571;SDS011;7958;53.024;12.970;2023-12-04T08:58:54;23.17;;;12.90;;
3571;SDS011;7958;53.024;12.970;2023-12-04T09:01:24;17.33;;;9.67;;
3571;SDS011;7958;53.024;12.970;2023-12-04T09:03:51;17.07;;;9.80;;
3571;SDS011;7958;53.024;12.970;2023-12-04T09:06:18;16.63;;;9.93;;
3571;SDS011;7958;53.024;12.970;2023-12-04T09:08:44;23.90;;;14.07;;
3571;SDS011;7958;53.024;12.970;2023-12-04T09:11:11;17.33;;;11.10;;
3571;SDS011;7958;53.024;12.970;2023-12-04T09:13:40;31.80;;;19.00;;
3571;SDS011;7958;53.024;12.970;2023-12-04T09:16:07;38.73;;;22.43;;
3571;SDS011;7958;53.024;12.970;2023-12-04T09:18:35;39.40;;;22.90;;
3571;SDS011;7958;53.024;12.970;2023-12-04T09:21:01;22.17;;;14.00;;
3571;SDS011;7958;53.024;12.970;2023-12-04T09:23:29;23.80;;;14.97;;
3571;SDS011;7958;53.024;12.970;2023-12-04T09:25:55;23.23;;;13.00;;
3571;SDS011;7958;53.024;12.970;2023-12-04T09:28:22;21.90;;;13.57;;
3571;SDS011;7958;53.024;12.970;2023-12-04T09:30:48;23.70;;;14.50;;
3571;SDS011;7958;53.024;12.970;2023-12-04T09:33:15;21.10;;;12.70;;
3571;SDS011;7958;53.024;12.970;2023-12-04T09:35:43;22.10;;;12.97;;
3571;SDS011;7958;53.024;12.970;2023-12-04T09:38:10;18.57;;;11.87;;
3571;SDS011;7958;53.024;12.970;2023-12-04T09:40:37;26.63;;;17.60;;
3571;SDS011;7958;53.024;12.970;2023-12-04T09:43:07;30.13;;;17.87;;
3571;SDS011;7958;53.024;12.970;2023-12-04T09:45:34;22.77;;;14.60;;
3571;SDS011;7958;53.024;12.970;2023-12-04T09:48:02;23.47;;;13.10;;
3571;SDS011;7958;53.024;12.970;2023-12-04T09:50:28;21.07;;;12.60;;
3571;SDS011;7958;53.024;12.970;2023-12-04T09:52:56;17.50;;;10.87;;
3571;SDS011;7958;53.024;12.970;2023-12-04T09:55:24;16.90;;;10.03;;
3571;SDS011;7958;53.024;12.970;2023-12-04T09:57:50;20.47;;;11.00;;
3571;SDS011;7958;53.024;12.970;2023-12-04T10:00:17;15.37;;;9.77;;
3571;SDS011;7958;53.024;12.970;2023-12-04T10:02:44;14.23;;;9.50;;
3571;SDS011;7958;53.024;12.970;2023-12-04T10:05:11;14.87;;;9.20;;
3571;SDS011;7958;53.024;12.970;2023-12-04T10:07:38;19.70;;;9.20;;
3571;SDS011;7958;53.024;12.970;2023-12-04T10:10:07;15.00;;;8.63;;
3571;SDS011;7958;53.024;12.970;2023-12-04T10:12:35;15.63;;;8.77;;
3571;SDS011;7958;53.024;12.970;2023-12-04T10:15:03;17.17;;;9.47;;
3571;SDS011;7958;53.024;12.970;2023-12-04T10:17:35;15.40;;;9.57;;
3571;SDS011;7958;53.024;12.970;2023-12-04T10:20:06;15.10;;;9.00;;
3571;SDS011;7958;53.024;12.970;2023-12-04T10:22:51;14.73;;;8.93;;
3571;SDS011;7958;53.024;12.970;2023-12-04T10:25:20;16.70;;;10.13;;
3571;SDS011;7958;53.024;12.970;2023-12-04T10:27:47;13.90;;;8.97;;
3571;SDS011;7958;53.024;12.970;2023-12-04T10:30:23;16.23;;;8.57;;
3571;SDS011;7958;53.024;12.970;2023-12-04T10:32:53;16.80;;;8.67;;
3571;SDS011;7958;53.024;12.970;2023-12-04T10:35:20;13.73;;;9.60;;
3571;SDS011;7958;53.024;12.970;2023-12-04T10:37:47;15.63;;;9.60;;
3571;SDS011;7958;53.024;12.970;2023-12-04T10:40:23;15.13;;;8.90;;
3571;SDS011;7958;53.024;12.970;2023-12-04T10:42:50;13.47;;;7.93;;
3571;SDS011;7958;53.024;12.970;2023-12-04T10:45:16;15.00;;;8.10;;
3571;SDS011;7958;53.024;12.970;2023-12-04T10:47:45;13.37;;;8.47;;
3571;SDS011;7958;53.024;12.970;2023-12-04T10:52:38;15.90;;;9.85;;
3571;SDS011;7958;53.024;12.970;2023-12-04T10:55:13;30.73;;;17.37;;
3571;SDS011;7958;53.024;12.970;2023-12-04T10:57:41;19.00;;;10.70;;
3571;SDS011;7958;53.024;12.970;2023-12-04T11:00:09;14.80;;;9.30;;
3571;SDS011;7958;53.024;12.970;2023-12-04T11:02:42;23.10;;;13.17;;
3571;SDS011;7958;53.024;12.970;2023-12-04T11:05:12;68.03;;;36.27;;
3571;SDS011;7958;53.024;12.970;2023-12-04T11:07:42;57.10;;;31.20;;
3571;SDS011;7958;53.024;12.970;2023-12-04T11:10:10;29.87;;;18.70;;
3571;SDS011;7958;53.024;12.970;2023-12-04T11:12:38;27.00;;;17.87;;
3571;SDS011;7958;53.024;12.970;2023-12-04T11:15:08;13.70;;;8.43;;
3571;SDS011;7958;53.024;12.970;2023-12-04T11:17:39;13.17;;;8.23;;
3571;SDS011;7958;53.024;12.970;2023-12-04T11:20:26;17.63;;;9.67;;
3571;SDS011;7958;53.024;12.970;2023-12-04T11:22:53;17.90;;;10.53;;
3571;SDS011;7958;53.024;12.970;2023-12-04T11:25:21;18.87;;;10.47;;
3571;SDS011;7958;53.024;12.970;2023-12-04T11:27:49;21.07;;;11.80;;
3571;SDS011;7958;53.024;12.970;2023-12-04T11:30:16;21.53;;;12.27;;
3571;SDS011;7958;53.024;12.970;2023-12-04T11:32:43;17.43;;;10.20;;
3571;SDS011;7958;53.024;12.970;2023-12-04T11:35:12;15.77;;;9.40;;
3571;SDS011;7958;53.024;12.970;2023-12-04T11:37:41;14.80;;;8.17;;
3571;SDS011;7958;53.024;12.970;2023-12-04T11:40:09;14.97;;;8.93;;
3571;SDS011;7958;53.024;12.970;2023-12-04T11:42:37;14.20;;;9.20;;
3571;SDS011;7958;53.024;12.970;2023-12-04T11:45:05;14.87;;;9.10;;
3571;SDS011;7958;53.024;12.970;2023-12-04T11:50:18;64.10;;;37.23;;
3571;SDS011;7958;53.024;12.970;2023-12-04T11:52:46;49.13;;;30.27;;
3571;SDS011;7958;53.024;12.970;2023-12-04T11:55:16;30.40;;;18.80;;
3571;SDS011;7958;53.024;12.970;2023-12-04T11:57:43;18.90;;;12.47;;
3571;SDS011;7958;53.024;12.970;2023-12-04T12:00:14;20.33;;;11.93;;
3571;SDS011;7958;53.024;12.970;2023-12-04T12:02:47;15.87;;;10.63;;
3571;SDS011;7958;53.024;12.970;2023-12-04T12:05:17;18.80;;;11.70;;
3571;SDS011;7958;53.024;12.970;2023-12-04T12:07:44;17.33;;;9.80;;
3571;SDS011;7958;53.024;12.970;2023-12-04T12:10:13;13.90;;;8.37;;
3571;SDS011;7958;53.024;12.970;2023-12-04T12:12:39;15.03;;;9.10;;
3571;SDS011;7958;53.024;12.970;2023-12-04T12:15:08;17.80;;;10.33;;
3571;SDS011;7958;53.024;12.970;2023-12-04T12:17:35;16.10;;;9.70;;
3571;SDS011;7958;53.024;12.970;2023-12-04T12:20:01;19.17;;;10.03;;
3571;SDS011;7958;53.024;12.970;2023-12-04T12:22:31;17.13;;;10.17;;
3571;SDS011;7958;53.024;12.970;2023-12-04T12:24:59;20.57;;;11.83;;
3571;SDS011;7958;53.024;12.970;2023-12-04T12:27:26;27.63;;;17.00;;
3571;SDS011;7958;53.024;12.970;2023-12-04T12:29:52;87.17;;;42.73;;
3571;SDS011;7958;53.024;12.970;2023-12-04T12:32:19;108.67;;;49.27;;
3571;SDS011;7958;53.024;12.970;2023-12-04T12:34:46;129.50;;;63.57;;
3571;SDS011;7958;53.024;12.970;2023-12-04T12:37:15;87.03;;;43.87;;
3571;SDS011;7958;53.024;12.970;2023-12-04T12:39:42;53.33;;;32.73;;
3571;SDS011;7958;53.024;12.970;2023-12-04T12:42:13;41.80;;;25.27;;
3571;SDS011;7958;53.024;12.970;2023-12-04T12:44:47;21.60;;;13.77;;
3571;SDS011;7958;53.024;12.970;2023-12-04T12:47:14;21.47;;;13.00;;
3571;SDS011;7958;53.024;12.970;2023-12-04T12:49:43;17.70;;;10.90;;
3571;SDS011;7958;53.024;12.970;2023-12-04T12:52:10;18.60;;;10.57;;
3571;SDS011;7958;53.024;12.970;2023-12-04T12:54:37;19.50;;;11.60;;
3571;SDS011;7958;53.024;12.970;2023-12-04T12:57:05;17.00;;;9.83;;
3571;SDS011;7958;53.024;12.970;2023-12-04T12:59:35;21.43;;;12.60;;
3571;SDS011;7958;53.024;12.970;2023-12-04T13:02:02;14.43;;;9.70;;
3571;SDS011;7958;53.024;12.970;2023-12-04T13:04:34;15.13;;;9.80;;
3571;SDS011;7958;53.024;12.970;2023-12-04T13:07:01;16.63;;;10.93;;
3571;SDS011;7958;53.024;12.970;2023-12-04T13:09:28;17.70;;;11.10;;
3571;SDS011;7958;53.024;12.970;2023-12-04T13:11:55;17.07;;;10.30;;
3571;SDS011;7958;53.024;12.970;2023-12-04T13:14:21;18.30;;;10.53;;
3571;SDS011;7958;53.024;12.970;2023-12-04T13:16:49;18.67;;;11.50;;
3571;SDS011;7958;53.024;12.970;2023-12-04T13:19:15;22.20;;;10.93;;
3571;SDS011;7958;53.024;12.970;2023-12-04T13:21:42;16.10;;;10.03;;
3571;SDS011;7958;53.024;12.970;2023-12-04T13:24:09;17.33;;;10.43;;
3571;SDS011;7958;53.024;12.970;2023-12-04T13:26:37;15.80;;;9.83;;
3571;SDS011;7958;53.024;12.970;2023-12-04T13:29:03;15.83;;;10.00;;
3571;SDS011;7958;53.024;12.970;2023-12-04T13:31:33;15.37;;;9.00;;
3571;SDS011;7958;53.024;12.970;2023-12-04T13:34:00;42.67;;;20.93;;
3571;SDS011;7958;53.024;12.970;2023-12-04T13:36:28;25.40;;;12.53;;
3571;SDS011;7958;53.024;12.970;2023-12-04T13:38:54;19.80;;;11.43;;
3571;SDS011;7958;53.024;12.970;2023-12-04T13:41:21;31.77;;;18.60;;
3571;SDS011;7958;53.024;12.970;2023-12-04T13:44:05;35.97;;;21.43;;
3571;SDS011;7958;53.024;12.970;2023-12-04T13:46:32;15.87;;;8.90;;
3571;SDS011;7958;53.024;12.970;2023-12-04T13:49:00;14.67;;;9.27;;
3571;SDS011;7958;53.024;12.970;2023-12-04T13:51:27;16.13;;;9.10;;
3571;SDS011;7958;53.024;12.970;2023-12-04T13:53:53;15.00;;;8.77;;
3571;SDS011;7958;53.024;12.970;2023-12-04T13:56:26;15.40;;;8.77;;
3571;SDS011;7958;53.024;12.970;2023-12-04T13:59:07;15.43;;;8.70;;
3571;SDS011;7958;53.024;12.970;2023-12-04T14:01:33;17.17;;;8.67;;
3571;SDS011;7958;53.024;12.970;2023-12-04T14:04:08;17.87;;;9.40;;
3571;SDS011;7958;53.024;12.970;2023-12-04T14:06:34;16.97;;;9.83;;
3571;SDS011;7958;53.024;12.970;2023-12-04T14:09:01;13.93;;;8.23;;
3571;SDS011;7958;53.024;12.970;2023-12-04T14:11:29;16.17;;;8.93;;
3571;SDS011;7958;53.024;12.970;2023-12-04T14:13:55;14.80;;;8.37;;
3571;SDS011;7958;53.024;12.970;2023-12-04T14:16:22;18.30;;;9.00;;
3571;SDS011;7958;53.024;12.970;2023-12-04T14:18:48;13.73;;;8.80;;
3571;SDS011;7958;53.024;12.970;2023-12-04T14:21:16;16.43;;;10.50;;
3571;SDS011;7958;53.024;12.970;2023-12-04T14:23:43;17.67;;;13.43;;
3571;SDS011;7958;53.024;12.970;2023-12-04T14:26:09;17.57;;;11.37;;
3571;SDS011;7958;53.024;12.970;2023-12-04T14:28:35;15.83;;;10.00;;
3571;SDS011;7958;53.024;12.970;2023-12-04T14:31:02;15.67;;;10.23;;
3571;SDS011;7958;53.024;12.970;2023-12-04T14:33:30;17.67;;;11.33;;
3571;SDS011;7958;53.024;12.970;2023-12-04T14:35:57;21.20;;;12.20;;
3571;SDS011;7958;53.024;12.970;2023-12-04T14:38:25;16.40;;;12.10;;
3571;SDS011;7958;53.024;12.970;2023-12-04T14:40:51;12.80;;;9.93;;
3571;SDS011;7958;53.024;12.970;2023-12-04T14:43:19;15.13;;;9.43;;
3571;SDS011;7958;53.024;12.970;2023-12-04T14:45:45;13.10;;;8.40;;
3571;SDS011;7958;53.024;12.970;2023-12-04T14:48:12;12.60;;;8.43;;
3571;SDS011;7958;53.024;12.970;2023-12-04T14:50:39;18.27;;;10.47;;
3571;SDS011;7958;53.024;12.970;2023-12-04T14:53:05;13.40;;;9.47;;
3571;SDS011;7958;53.024;12.970;2023-12-04T14:55:42;14.70;;;8.60;;
3571;SDS011;7958;53.024;12.970;2023-12-04T14:58:26;15.20;;;9.80;;
3571;SDS011;7958;53.024;12.970;2023-12-04T15:01:31;16.00;;;10.37;;
3571;SDS011;7958;53.024;12.970;2023-12-04T15:04:29;13.23;;;8.00;;
3571;SDS011;7958;53.024;12.970;2023-12-04T15:07:18;13.17;;;8.20;;